createdAt,value
2022-11-20T00:00:15.027Z,98.68
2022-11-20T00:01:15.035Z,98.68
2022-11-20T00:02:15.391Z,98.68
2022-11-20T00:03:15.064Z,98.68
2022-11-20T00:04:15.005Z,98.68
2022-11-20T00:05:15.015Z,98.68
2022-11-20T00:06:14.978Z,98.79
2022-11-20T00:07:15.005Z,98.79
2022-11-20T00:08:15.041Z,98.79
2022-11-20T00:09:15.275Z,98.89
2022-11-20T00:10:14.932Z,98.89
2022-11-20T00:11:16.440Z,98.99
2022-11-20T00:12:14.911Z,99.10
2022-11-20T00:13:14.924Z,99.21
2022-11-20T00:14:14.947Z,99.21
2022-11-20T00:15:14.883Z,99.31
2022-11-20T00:16:15.182Z,99.31
2022-11-20T00:17:14.913Z,99.41
2022-11-20T00:18:14.859Z,99.41
2022-11-20T00:19:14.853Z,99.52
2022-11-20T00:20:15.145Z,99.52
2022-11-20T00:21:14.824Z,99.57
2022-11-20T00:22:14.801Z,99.57
2022-11-20T00:23:16.147Z,99.67
2022-11-20T00:24:14.781Z,99.67
2022-11-20T00:25:14.792Z,99.67
2022-11-20T00:26:14.852Z,99.57
2022-11-20T00:27:14.773Z,99.57
2022-11-20T00:28:14.767Z,99.46
2022-11-20T00:29:14.754Z,99.57
2022-11-20T00:30:15.414Z,99.57
2022-11-20T00:31:14.733Z,99.46
2022-11-20T00:32:14.782Z,99.46
2022-11-20T00:33:14.721Z,99.57
2022-11-20T00:34:14.701Z,99.67
2022-11-20T00:35:14.721Z,99.67
2022-11-20T00:36:14.670Z,99.78
2022-11-20T00:37:14.949Z,99.78
2022-11-20T00:38:15.149Z,99.78
2022-11-20T00:39:14.668Z,99.93
2022-11-20T00:40:14.675Z,99.88
2022-11-20T00:41:14.630Z,99.93
2022-11-20T00:42:14.614Z,99.93
2022-11-20T00:43:14.599Z,99.93
2022-11-20T00:44:14.926Z,99.99
2022-11-20T00:45:14.585Z,99.99
2022-11-20T00:46:14.580Z,99.99
2022-11-20T00:47:14.587Z,99.99
2022-11-20T00:48:14.567Z,99.99
2022-11-20T00:49:14.574Z,99.99
2022-11-20T00:50:14.577Z,99.99
2022-11-20T00:51:14.840Z,99.99
2022-11-20T00:52:14.521Z,99.99
2022-11-20T00:53:14.567Z,99.99
2022-11-20T00:54:14.521Z,99.99
2022-11-20T00:55:14.486Z,99.99
2022-11-20T00:56:14.545Z,99.99
2022-11-20T00:57:14.516Z,99.99
2022-11-20T00:58:14.772Z,99.99
2022-11-20T00:59:14.477Z,99.99
2022-11-20T01:00:14.496Z,99.99
2022-11-20T01:01:14.559Z,99.99
2022-11-20T01:02:14.443Z,99.99
2022-11-20T01:03:14.427Z,99.99
2022-11-20T01:04:14.438Z,99.99
2022-11-20T01:05:14.688Z,99.99
2022-11-20T01:06:14.398Z,99.99
2022-11-20T01:07:14.423Z,99.99
2022-11-20T01:08:14.386Z,99.99
2022-11-20T01:09:14.356Z,99.99
2022-11-20T01:10:14.345Z,99.99
2022-11-20T01:11:14.328Z,99.99
2022-11-20T01:12:14.611Z,99.99
2022-11-20T01:13:14.295Z,99.99
2022-11-20T01:14:14.343Z,99.99
2022-11-20T01:15:14.290Z,99.99
2022-11-20T01:16:14.296Z,99.99
2022-11-20T01:17:14.269Z,99.99
2022-11-20T01:18:14.260Z,99.99
2022-11-20T01:19:17.715Z,99.99
2022-11-20T01:20:14.307Z,99.99
2022-11-20T01:21:14.224Z,99.99
2022-11-20T01:22:14.241Z,99.99
2022-11-20T01:23:14.220Z,99.99
2022-11-20T01:24:14.237Z,99.99
2022-11-20T01:25:14.199Z,99.99
2022-11-20T01:26:14.532Z,99.99
2022-11-20T01:27:14.163Z,99.99
2022-11-20T01:28:14.186Z,99.99
2022-11-20T01:29:14.139Z,99.99
2022-11-20T01:30:14.139Z,99.99
2022-11-20T01:31:14.147Z,99.99
2022-11-20T01:32:14.194Z,99.99
2022-11-20T01:33:14.438Z,99.99
2022-11-20T01:34:14.123Z,99.78
2022-11-20T01:35:14.131Z,99.72
2022-11-20T01:36:14.110Z,99.72
2022-11-20T01:37:14.063Z,99.61
2022-11-20T01:38:14.156Z,99.51
2022-11-20T01:39:14.040Z,99.40
2022-11-20T01:40:14.321Z,99.40
2022-11-20T01:41:14.047Z,99.34
2022-11-20T01:42:14.042Z,99.34
2022-11-20T01:43:14.060Z,99.44
2022-11-20T01:44:14.083Z,99.55
2022-11-20T01:45:14.004Z,99.55
2022-11-20T01:46:14.055Z,99.66
2022-11-20T01:47:13.961Z,99.87
2022-11-20T01:48:13.996Z,99.99
2022-11-20T01:49:13.943Z,99.99
2022-11-20T01:50:14.033Z,99.99
2022-11-20T01:51:13.943Z,99.99
2022-11-20T01:52:14.249Z,99.99
2022-11-20T01:53:13.929Z,99.99
2022-11-20T01:54:13.904Z,99.99
2022-11-20T01:55:13.901Z,99.99
2022-11-20T01:56:14.162Z,99.99
2022-11-20T01:57:13.889Z,99.99
2022-11-20T01:58:13.862Z,99.99
2022-11-20T01:59:13.900Z,99.99
2022-11-20T02:00:13.845Z,99.99
2022-11-20T02:01:13.988Z,99.99
2022-11-20T02:02:13.878Z,99.99
2022-11-20T02:03:13.874Z,99.99
2022-11-20T02:04:16.183Z,99.99
2022-11-20T02:05:13.816Z,99.99
2022-11-20T02:06:13.831Z,99.99
2022-11-20T02:07:13.830Z,99.99
2022-11-20T02:08:14.149Z,99.99
2022-11-20T02:09:13.795Z,99.99
2022-11-20T02:10:13.764Z,99.99
2022-11-20T02:11:14.023Z,99.99
2022-11-20T02:12:13.731Z,99.99
2022-11-20T02:13:13.731Z,99.99
2022-11-20T02:14:13.771Z,99.99
2022-11-20T02:15:13.690Z,99.99
2022-11-20T02:16:13.723Z,99.99
2022-11-20T02:17:13.692Z,99.99
2022-11-20T02:18:13.974Z,99.99
2022-11-20T02:19:13.685Z,99.99
2022-11-20T02:20:13.775Z,99.99
2022-11-20T02:21:13.631Z,99.99
2022-11-20T02:22:13.650Z,99.99
2022-11-20T02:23:13.630Z,99.99
2022-11-20T02:24:13.631Z,99.99
2022-11-20T02:25:13.890Z,99.99
2022-11-20T02:26:13.618Z,99.99
2022-11-20T02:27:13.610Z,99.99
2022-11-20T02:28:13.569Z,99.99
2022-11-20T02:29:13.571Z,99.99
2022-11-20T02:30:13.561Z,99.99
2022-11-20T02:31:13.549Z,99.99
2022-11-20T02:32:13.844Z,99.99
2022-11-20T02:33:14.132Z,99.99
2022-11-20T02:34:13.548Z,99.99
2022-11-20T02:35:13.521Z,99.99
2022-11-20T02:36:13.529Z,99.99
2022-11-20T02:37:13.514Z,99.99
2022-11-20T02:38:13.526Z,99.99
2022-11-20T02:39:13.751Z,99.99
2022-11-20T02:40:13.495Z,99.99
2022-11-20T02:41:13.503Z,99.99
2022-11-20T02:42:13.458Z,99.99
2022-11-20T02:43:13.453Z,99.99
2022-11-20T02:44:13.497Z,99.99
2022-11-20T02:45:13.408Z,99.99
2022-11-20T02:46:13.681Z,99.99
2022-11-20T02:47:13.395Z,99.99
2022-11-20T02:48:13.376Z,99.99
2022-11-20T02:49:13.387Z,99.99
2022-11-20T02:50:13.422Z,99.99
2022-11-20T02:51:13.365Z,99.99
2022-11-20T02:52:13.333Z,99.99
2022-11-20T02:53:14.640Z,99.99
2022-11-20T02:54:13.336Z,99.99
2022-11-20T02:55:13.346Z,99.99
2022-11-20T02:56:13.336Z,99.99
2022-11-20T02:57:13.287Z,99.99
2022-11-20T02:58:13.272Z,99.99
2022-11-20T02:59:13.278Z,99.99
2022-11-20T03:00:13.561Z,99.99
2022-11-20T03:01:13.319Z,99.99
2022-11-20T03:02:13.265Z,99.99
2022-11-20T03:03:13.251Z,99.99
2022-11-20T03:04:13.208Z,99.99
2022-11-20T03:05:13.196Z,99.99
2022-11-20T03:06:13.182Z,99.99
2022-11-20T03:07:13.512Z,99.99
2022-11-20T03:08:13.194Z,99.99
2022-11-20T03:09:13.152Z,99.99
2022-11-20T03:10:13.175Z,99.99
2022-11-20T03:11:13.132Z,99.99
2022-11-20T03:12:13.119Z,99.99
2022-11-20T03:13:13.120Z,99.99
2022-11-20T03:14:13.414Z,99.99
2022-11-20T03:15:13.102Z,99.99
2022-11-20T03:16:13.119Z,99.99
2022-11-20T03:17:13.082Z,99.99
2022-11-20T03:18:13.057Z,99.99
2022-11-20T03:19:13.061Z,99.99
2022-11-20T03:20:13.075Z,99.99
2022-11-20T03:21:13.317Z,99.99
2022-11-20T03:22:13.024Z,99.99
2022-11-20T03:23:13.022Z,99.99
2022-11-20T03:24:13.012Z,99.99
2022-11-20T03:25:13.000Z,99.99
2022-11-20T03:26:13.009Z,99.99
2022-11-20T03:27:12.980Z,99.99
2022-11-20T03:28:13.248Z,99.99
2022-11-20T03:29:12.954Z,99.99
2022-11-20T03:30:12.949Z,99.99
2022-11-20T03:31:12.976Z,99.99
2022-11-20T03:32:12.953Z,99.99
2022-11-20T03:33:12.919Z,99.99
2022-11-20T03:34:12.899Z,99.99
2022-11-20T03:35:13.204Z,99.99
2022-11-20T03:36:12.884Z,99.99
2022-11-20T03:37:12.877Z,99.99
2022-11-20T03:38:12.898Z,99.99
2022-11-20T03:39:12.868Z,99.99
2022-11-20T03:40:12.865Z,99.99
2022-11-20T03:41:12.860Z,99.99
2022-11-20T03:42:13.116Z,99.99
2022-11-20T03:43:12.817Z,99.99
2022-11-20T03:44:12.861Z,99.99
2022-11-20T03:45:12.817Z,99.99
2022-11-20T03:46:12.792Z,99.99
2022-11-20T03:47:12.805Z,99.99
2022-11-20T03:48:12.764Z,99.99
2022-11-20T03:49:13.052Z,99.99
2022-11-20T03:50:12.786Z,99.99
2022-11-20T03:51:12.744Z,99.99
2022-11-20T03:52:12.743Z,99.99
2022-11-20T03:53:12.722Z,99.99
2022-11-20T03:54:12.708Z,99.99
2022-11-20T03:55:12.707Z,99.99
2022-11-20T03:56:13.016Z,99.99
2022-11-20T03:57:12.684Z,99.99
2022-11-20T03:58:12.695Z,99.99
2022-11-20T03:59:12.676Z,99.99
2022-11-20T04:00:12.660Z,99.99
2022-11-20T04:01:12.653Z,99.99
2022-11-20T04:02:12.719Z,99.99
2022-11-20T04:03:12.925Z,99.99
2022-11-20T04:04:12.612Z,99.99
2022-11-20T04:05:12.605Z,99.99
2022-11-20T04:06:12.588Z,99.99
2022-11-20T04:07:12.644Z,99.99
2022-11-20T04:08:12.589Z,99.99
2022-11-20T04:09:12.577Z,99.99
2022-11-20T04:10:12.833Z,99.99
2022-11-20T04:11:12.551Z,99.99
2022-11-20T04:12:12.525Z,99.99
2022-11-20T04:13:12.530Z,99.99
2022-11-20T04:14:12.552Z,99.99
2022-11-20T04:15:12.515Z,99.99
2022-11-20T04:16:12.495Z,99.99
2022-11-20T04:17:12.490Z,99.99
2022-11-20T04:18:12.474Z,99.99
2022-11-20T04:19:12.780Z,99.99
2022-11-20T04:20:12.495Z,99.99
2022-11-20T04:21:12.441Z,99.99
2022-11-20T04:22:12.430Z,99.99
2022-11-20T04:23:12.429Z,99.99
2022-11-20T04:24:12.413Z,99.99
2022-11-20T04:25:12.422Z,99.99
2022-11-20T04:26:12.719Z,99.99
2022-11-20T04:27:12.422Z,99.99
2022-11-20T04:28:12.384Z,99.99
2022-11-20T04:29:12.371Z,99.99
2022-11-20T04:30:12.351Z,99.99
2022-11-20T04:31:12.345Z,99.99
2022-11-20T04:32:12.387Z,99.99
2022-11-20T04:33:12.619Z,99.99
2022-11-20T04:34:12.312Z,99.99
2022-11-20T04:35:12.305Z,99.99
2022-11-20T04:36:12.410Z,99.99
2022-11-20T04:37:12.287Z,99.99
2022-11-20T04:38:12.300Z,99.99
2022-11-20T04:39:12.274Z,99.99
2022-11-20T04:40:12.550Z,99.99
2022-11-20T04:41:12.248Z,99.99
2022-11-20T04:42:12.253Z,99.99
2022-11-20T04:43:12.256Z,99.99
2022-11-20T04:44:12.255Z,99.99
2022-11-20T04:45:12.225Z,99.99
2022-11-20T04:46:12.197Z,99.99
2022-11-20T04:47:12.498Z,99.99
2022-11-20T04:48:12.176Z,99.99
2022-11-20T04:49:12.202Z,99.99
2022-11-20T04:50:12.227Z,99.99
2022-11-20T04:51:12.149Z,99.99
2022-11-20T04:52:12.147Z,99.99
2022-11-20T04:53:12.134Z,99.99
2022-11-20T04:54:12.391Z,99.99
2022-11-20T04:55:12.124Z,99.99
2022-11-20T04:56:12.138Z,99.99
2022-11-20T04:57:14.589Z,99.99
2022-11-20T04:58:12.079Z,99.99
2022-11-20T04:59:12.091Z,99.99
2022-11-20T05:00:12.066Z,99.99
2022-11-20T05:01:12.389Z,99.99
2022-11-20T05:02:12.076Z,99.99
2022-11-20T05:03:12.029Z,99.99
2022-11-20T05:04:12.017Z,99.99
2022-11-20T05:05:12.014Z,99.99
2022-11-20T05:06:12.006Z,99.99
2022-11-20T05:07:12.052Z,99.99
2022-11-20T05:08:12.320Z,99.99
2022-11-20T05:09:11.979Z,99.99
2022-11-20T05:10:11.962Z,99.99
2022-11-20T05:11:11.967Z,99.99
2022-11-20T05:12:11.948Z,99.99
2022-11-20T05:13:11.939Z,99.99
2022-11-20T05:14:11.963Z,99.99
2022-11-20T05:15:12.220Z,99.99
2022-11-20T05:16:11.927Z,99.99
2022-11-20T05:17:11.906Z,99.99
2022-11-20T05:18:11.903Z,99.99
2022-11-20T05:19:12.045Z,99.99
2022-11-20T05:20:11.902Z,99.99
2022-11-20T05:21:11.867Z,99.99
2022-11-20T05:22:12.145Z,99.99
2022-11-20T05:23:11.837Z,99.99
2022-11-20T05:24:11.841Z,99.99
2022-11-20T05:25:11.864Z,99.99
2022-11-20T05:26:11.836Z,99.99
2022-11-20T05:27:11.805Z,99.99
2022-11-20T05:28:11.844Z,99.99
2022-11-20T05:29:12.059Z,99.99
2022-11-20T05:30:11.766Z,99.99
2022-11-20T05:31:11.773Z,99.99
2022-11-20T05:32:11.789Z,99.99
2022-11-20T05:33:11.750Z,99.99
2022-11-20T05:34:11.736Z,99.99
2022-11-20T05:35:11.736Z,99.99
2022-11-20T05:36:12.008Z,99.99
2022-11-20T05:37:11.704Z,99.99
2022-11-20T05:38:11.727Z,99.99
2022-11-20T05:39:11.686Z,99.99
2022-11-20T05:40:11.675Z,99.99
2022-11-20T05:41:11.663Z,99.99
2022-11-20T05:42:11.666Z,99.99
2022-11-20T05:43:11.921Z,99.99
2022-11-20T05:44:11.663Z,99.99
2022-11-20T05:45:11.641Z,99.99
2022-11-20T05:46:11.607Z,99.99
2022-11-20T05:47:11.621Z,99.99
2022-11-20T05:48:11.592Z,99.99
2022-11-20T05:49:11.585Z,99.99
2022-11-20T05:50:11.907Z,99.99
2022-11-20T05:51:11.561Z,99.99
2022-11-20T05:52:11.554Z,99.99
2022-11-20T05:53:11.610Z,99.99
2022-11-20T05:54:11.540Z,99.99
2022-11-20T05:55:11.528Z,99.99
2022-11-20T05:56:11.545Z,99.99
2022-11-20T05:57:11.786Z,99.99
2022-11-20T05:58:11.505Z,99.99
2022-11-20T05:59:11.485Z,99.99
2022-11-20T06:00:11.494Z,99.99
2022-11-20T06:01:11.499Z,99.99
2022-11-20T06:02:11.483Z,99.99
2022-11-20T06:03:11.444Z,99.99
2022-11-20T06:04:11.720Z,99.99
2022-11-20T06:05:11.429Z,99.99
2022-11-20T06:06:11.407Z,99.99
2022-11-20T06:07:11.505Z,99.99
2022-11-20T06:08:11.423Z,99.99
2022-11-20T06:09:11.387Z,99.99
2022-11-20T06:10:11.375Z,99.99
2022-11-20T06:11:11.652Z,99.99
2022-11-20T06:12:11.364Z,99.99
2022-11-20T06:13:11.356Z,99.99
2022-11-20T06:14:11.369Z,99.99
2022-11-20T06:15:11.342Z,99.99
2022-11-20T06:16:11.357Z,99.99
2022-11-20T06:17:11.314Z,99.99
2022-11-20T06:18:11.644Z,99.99
2022-11-20T06:19:11.290Z,99.99
2022-11-20T06:20:11.314Z,99.99
2022-11-20T06:21:11.272Z,99.99
2022-11-20T06:22:11.255Z,99.99
2022-11-20T06:23:11.251Z,99.99
2022-11-20T06:24:11.242Z,99.99
2022-11-20T06:25:11.516Z,99.99
2022-11-20T06:26:11.239Z,99.99
2022-11-20T06:27:11.218Z,99.99
2022-11-20T06:28:11.211Z,99.99
2022-11-20T06:29:11.191Z,99.99
2022-11-20T06:30:11.179Z,99.99
2022-11-20T06:31:11.174Z,99.99
2022-11-20T06:32:11.479Z,99.99
2022-11-20T06:33:11.162Z,99.99
2022-11-20T06:34:11.146Z,99.99
2022-11-20T06:35:11.130Z,99.99
2022-11-20T06:36:11.263Z,99.99
2022-11-20T06:37:11.119Z,99.99
2022-11-20T06:38:11.146Z,99.99
2022-11-20T06:39:11.392Z,99.99
2022-11-20T06:40:11.130Z,99.99
2022-11-20T06:41:11.070Z,99.99
2022-11-20T06:42:11.161Z,99.99
2022-11-20T06:43:11.067Z,99.99
2022-11-20T06:44:11.229Z,99.99
2022-11-20T06:45:11.061Z,99.99
2022-11-20T06:46:11.343Z,99.99
2022-11-20T06:47:11.015Z,99.99
2022-11-20T06:48:11.009Z,99.99
2022-11-20T06:49:10.994Z,99.99
2022-11-20T06:50:11.022Z,99.99
2022-11-20T06:51:10.969Z,99.99
2022-11-20T06:52:10.971Z,99.99
2022-11-20T06:53:11.230Z,99.99
2022-11-20T06:54:10.976Z,99.99
2022-11-20T06:55:11.011Z,99.99
2022-11-20T06:56:11.022Z,99.99
2022-11-20T06:57:10.919Z,99.99
2022-11-20T06:58:10.916Z,99.99
2022-11-20T06:59:10.899Z,99.99
2022-11-20T07:00:11.182Z,99.99
2022-11-20T07:01:10.946Z,99.99
2022-11-20T07:02:10.902Z,99.99
2022-11-20T07:03:10.865Z,99.99
2022-11-20T07:04:10.839Z,99.99
2022-11-20T07:05:10.859Z,99.99
2022-11-20T07:06:10.822Z,99.99
2022-11-20T07:07:11.265Z,99.99
2022-11-20T07:08:10.836Z,99.99
2022-11-20T07:09:12.842Z,99.99
2022-11-20T07:10:10.796Z,99.99
2022-11-20T07:11:10.769Z,99.99
2022-11-20T07:12:10.766Z,99.99
2022-11-20T07:13:10.766Z,99.99
2022-11-20T07:14:11.054Z,99.99
2022-11-20T07:15:10.750Z,99.99
2022-11-20T07:16:10.772Z,99.99
2022-11-20T07:17:10.721Z,99.99
2022-11-20T07:18:10.706Z,99.99
2022-11-20T07:19:10.704Z,99.99
2022-11-20T07:20:10.718Z,99.99
2022-11-20T07:21:10.975Z,99.99
2022-11-20T07:22:10.673Z,99.99
2022-11-20T07:23:10.661Z,99.99
2022-11-20T07:24:10.657Z,99.99
2022-11-20T07:25:10.640Z,99.99
2022-11-20T07:26:10.656Z,99.99
2022-11-20T07:27:10.606Z,99.99
2022-11-20T07:28:10.932Z,99.99
2022-11-20T07:29:10.606Z,99.99
2022-11-20T07:30:10.609Z,99.99
2022-11-20T07:31:14.614Z,99.99
2022-11-20T07:32:10.600Z,99.99
2022-11-20T07:33:10.570Z,99.99
2022-11-20T07:34:10.557Z,99.99
2022-11-20T07:35:10.842Z,99.99
2022-11-20T07:36:10.547Z,99.99
2022-11-20T07:37:10.750Z,99.99
2022-11-20T07:38:10.536Z,99.99
2022-11-20T07:39:10.498Z,99.99
2022-11-20T07:40:10.509Z,99.99
2022-11-20T07:41:10.472Z,99.99
2022-11-20T07:42:10.763Z,99.99
2022-11-20T07:43:10.464Z,99.99
2022-11-20T07:44:10.487Z,99.99
2022-11-20T07:45:10.440Z,99.99
2022-11-20T07:46:10.422Z,99.99
2022-11-20T07:47:10.423Z,99.99
2022-11-20T07:48:10.403Z,99.99
2022-11-20T07:49:10.672Z,99.99
2022-11-20T07:50:10.434Z,99.99
2022-11-20T07:51:10.371Z,99.99
2022-11-20T07:52:10.362Z,99.99
2022-11-20T07:53:10.359Z,99.99
2022-11-20T07:54:10.366Z,99.99
2022-11-20T07:55:10.343Z,99.99
2022-11-20T07:56:10.643Z,99.99
2022-11-20T07:57:10.308Z,99.99
2022-11-20T07:58:10.310Z,99.99
2022-11-20T07:59:10.300Z,99.99
2022-11-20T08:00:10.300Z,99.99
2022-11-20T08:01:10.338Z,99.99
2022-11-20T08:02:10.328Z,99.99
2022-11-20T08:03:10.567Z,99.99
2022-11-20T08:04:10.264Z,99.99
2022-11-20T08:05:10.357Z,99.99
2022-11-20T08:06:10.244Z,99.99
2022-11-20T08:07:10.308Z,99.99
2022-11-20T08:08:10.259Z,99.99
2022-11-20T08:09:10.200Z,99.99
2022-11-20T08:10:10.463Z,99.99
2022-11-20T08:11:10.173Z,99.99
2022-11-20T08:12:10.197Z,99.99
2022-11-20T08:13:10.206Z,99.99
2022-11-20T08:14:10.186Z,99.99
2022-11-20T08:15:13.298Z,99.99
2022-11-20T08:16:10.127Z,99.99
2022-11-20T08:17:10.394Z,99.99
2022-11-20T08:19:10.110Z,99.99
2022-11-20T08:20:10.117Z,99.99
2022-11-20T08:21:10.071Z,99.99
2022-11-20T08:22:10.059Z,99.99
2022-11-20T08:23:10.054Z,99.99
2022-11-20T08:24:10.340Z,99.99
2022-11-20T08:25:10.033Z,99.99
2022-11-20T08:26:10.055Z,99.99
2022-11-20T08:27:10.013Z,99.99
2022-11-20T08:28:19.958Z,99.99
2022-11-20T08:29:10.032Z,99.99
2022-11-20T08:30:10.009Z,99.99
2022-11-20T08:31:11.302Z,99.99
2022-11-20T08:32:10.014Z,99.99
2022-11-20T08:33:09.966Z,99.99
2022-11-20T08:34:12.037Z,99.99
2022-11-20T08:35:09.939Z,99.99
2022-11-20T08:36:09.945Z,99.99
2022-11-20T08:37:09.911Z,99.99
2022-11-20T08:38:10.228Z,99.99
2022-11-20T08:39:10.154Z,99.99
2022-11-20T08:40:09.905Z,99.99
2022-11-20T08:41:09.893Z,99.99
2022-11-20T08:42:09.874Z,99.99
2022-11-20T08:43:09.846Z,99.99
2022-11-20T08:44:09.894Z,99.99
2022-11-20T08:45:10.132Z,99.99
2022-11-20T08:46:09.830Z,99.99
2022-11-20T08:47:09.809Z,99.99
2022-11-20T08:48:09.813Z,99.99
2022-11-20T08:49:09.788Z,99.99
2022-11-20T08:50:09.821Z,99.99
2022-11-20T08:51:09.828Z,99.99
2022-11-20T08:52:10.055Z,99.99
2022-11-20T08:53:09.778Z,99.99
2022-11-20T08:54:09.752Z,99.99
2022-11-20T08:55:09.745Z,99.99
2022-11-20T08:56:09.779Z,99.99
2022-11-20T08:57:09.715Z,99.99
2022-11-20T08:58:09.716Z,99.99
2022-11-20T08:59:27.013Z,99.99
2022-11-20T09:00:10.067Z,99.99
2022-11-20T09:01:09.733Z,99.99
2022-11-20T09:02:09.753Z,99.99
2022-11-20T09:03:09.682Z,99.99
2022-11-20T09:04:09.657Z,99.99
2022-11-20T09:05:09.658Z,99.99
2022-11-20T09:06:09.903Z,99.99
2022-11-20T09:07:09.785Z,99.99
2022-11-20T09:08:09.706Z,99.99
2022-11-20T09:09:09.641Z,99.99
2022-11-20T09:10:23.668Z,99.99
2022-11-20T09:11:09.599Z,99.99
2022-11-20T09:12:09.576Z,99.99
2022-11-20T09:13:09.866Z,99.99
2022-11-20T09:14:09.593Z,99.99
2022-11-20T09:15:09.525Z,99.99
2022-11-20T09:16:09.532Z,99.99
2022-11-20T09:17:09.512Z,99.99
2022-11-20T09:18:09.564Z,97.70
2022-11-20T09:20:09.555Z,97.11
2022-11-20T09:21:09.556Z,97.53
2022-11-20T09:22:09.486Z,97.70
2022-11-20T09:23:09.454Z,96.92
2022-11-20T09:24:09.444Z,96.34
2022-11-20T09:25:09.432Z,96.82
2022-11-20T09:26:09.749Z,96.61
2022-11-20T09:27:09.411Z,95.98
2022-11-20T09:28:09.421Z,96.09
2022-11-20T09:29:09.412Z,95.78
2022-11-20T09:30:09.373Z,95.62
2022-11-20T09:31:09.366Z,94.75
2022-11-20T09:32:09.645Z,93.77
2022-11-20T09:33:09.355Z,92.12
2022-11-20T09:34:09.378Z,91.10
2022-11-20T09:35:09.325Z,88.50
2022-11-20T09:36:09.344Z,88.31
2022-11-20T09:37:09.310Z,86.78
2022-11-20T09:38:09.626Z,84.36
2022-11-20T09:39:09.282Z,83.77
2022-11-20T09:40:09.278Z,84.60
2022-11-20T09:41:09.294Z,83.98
2022-11-20T09:42:09.256Z,83.63
2022-11-20T09:43:09.229Z,82.70
2022-11-20T09:44:09.275Z,82.80
2022-11-20T09:45:09.213Z,82.55
2022-11-20T09:46:09.214Z,81.37
2022-11-20T09:47:09.213Z,80.99
2022-11-20T09:48:09.192Z,81.62
2022-11-20T09:49:09.172Z,81.97
2022-11-20T09:50:09.498Z,82.76
2022-11-20T09:51:09.150Z,81.93
2022-11-20T09:52:09.134Z,81.48
2022-11-20T09:53:09.130Z,80.44
2022-11-20T09:54:09.167Z,80.44
2022-11-20T09:55:09.115Z,80.61
2022-11-20T09:56:09.143Z,79.78
2022-11-20T09:57:09.382Z,79.68
2022-11-20T09:58:09.095Z,79.68
2022-11-20T09:59:09.067Z,79.99
2022-11-20T10:00:09.097Z,80.44
2022-11-20T10:01:09.093Z,81.82
2022-11-20T10:02:09.075Z,82.18
2022-11-20T10:03:09.023Z,82.34
2022-11-20T10:04:09.285Z,81.82
2022-11-20T10:05:09.030Z,81.51
2022-11-20T10:06:08.988Z,82.55
2022-11-20T10:07:31.331Z,81.48
2022-11-20T10:08:09.134Z,80.78
2022-11-20T10:09:08.977Z,79.64
2022-11-20T10:10:08.962Z,78.67
2022-11-20T10:11:09.211Z,78.05
2022-11-20T10:12:08.936Z,75.57
2022-11-20T10:13:08.935Z,75.26
2022-11-20T10:14:09.048Z,75.36
2022-11-20T10:15:08.899Z,75.84
2022-11-20T10:16:08.899Z,76.32
2022-11-20T10:17:08.912Z,76.43
2022-11-20T10:18:09.138Z,76.09
2022-11-20T10:19:08.844Z,75.43
2022-11-20T10:20:08.888Z,74.46
2022-11-20T10:21:08.856Z,73.54
2022-11-20T10:22:08.855Z,72.23
2022-11-20T10:23:08.812Z,70.99
2022-11-20T10:24:08.826Z,71.47
2022-11-20T10:25:09.115Z,70.86
2022-11-20T10:26:08.851Z,71.78
2022-11-20T10:27:08.773Z,70.92
2022-11-20T10:28:08.762Z,69.86
2022-11-20T10:29:09.207Z,67.66
2022-11-20T10:30:08.767Z,67.22
2022-11-20T10:31:08.727Z,66.40
2022-11-20T10:32:09.075Z,66.91
2022-11-20T10:33:08.703Z,67.33
2022-11-20T10:34:12.768Z,66.47
2022-11-20T10:35:08.701Z,66.16
2022-11-20T10:36:08.698Z,66.99
2022-11-20T10:37:08.658Z,66.58
2022-11-20T10:38:08.695Z,66.41
2022-11-20T10:39:08.945Z,64.43
2022-11-20T10:40:08.639Z,64.25
2022-11-20T10:41:08.646Z,65.14
2022-11-20T10:42:08.618Z,63.74
2022-11-20T10:43:08.596Z,65.11
2022-11-20T10:44:08.687Z,65.31
2022-11-20T10:45:08.574Z,65.13
2022-11-20T10:46:08.864Z,65.83
2022-11-20T10:47:08.558Z,65.95
2022-11-20T10:48:08.543Z,66.19
2022-11-20T10:49:08.536Z,65.95
2022-11-20T10:50:08.843Z,65.41
2022-11-20T10:51:08.513Z,64.39
2022-11-20T10:52:08.509Z,64.48
2022-11-20T10:53:08.780Z,64.18
2022-11-20T10:54:08.493Z,64.72
2022-11-20T10:55:08.493Z,65.68
2022-11-20T10:56:08.489Z,65.86
2022-11-20T10:57:08.468Z,65.58
2022-11-20T10:58:08.469Z,67.35
2022-11-20T10:59:08.433Z,68.59
2022-11-20T11:00:08.698Z,67.90
2022-11-20T11:01:08.429Z,68.24
2022-11-20T11:02:08.463Z,68.01
2022-11-20T11:03:08.398Z,67.39
2022-11-20T11:04:08.388Z,68.59
2022-11-20T11:05:14.148Z,69.65
2022-11-20T11:06:08.359Z,69.78
2022-11-20T11:07:08.673Z,72.81
2022-11-20T11:08:08.365Z,74.91
2022-11-20T11:09:08.340Z,75.29
2022-11-20T11:10:08.338Z,76.02
2022-11-20T11:11:08.360Z,75.53
2022-11-20T11:12:08.324Z,74.40
2022-11-20T11:13:08.286Z,74.22
2022-11-20T11:14:08.644Z,73.77
2022-11-20T11:15:08.274Z,72.57
2022-11-20T11:16:08.279Z,71.12
2022-11-20T11:17:08.255Z,71.26
2022-11-20T11:18:08.243Z,71.81
2022-11-20T11:19:08.220Z,72.09
2022-11-20T11:20:08.235Z,71.37
2022-11-20T11:21:08.494Z,71.47
2022-11-20T11:22:08.204Z,70.82
2022-11-20T11:23:08.227Z,69.96
2022-11-20T11:24:34.875Z,68.86
2022-11-20T11:25:08.185Z,67.29
2022-11-20T11:26:08.184Z,67.70
2022-11-20T11:27:12.372Z,66.97
2022-11-20T11:28:08.152Z,66.25
2022-11-20T11:29:08.103Z,67.49
2022-11-20T11:30:08.105Z,67.86
2022-11-20T11:31:08.332Z,67.52
2022-11-20T11:32:08.097Z,66.43
2022-11-20T11:33:08.067Z,65.71
2022-11-20T11:34:08.323Z,65.81
2022-11-20T11:35:08.070Z,65.58
2022-11-20T11:36:08.036Z,64.93
2022-11-20T11:37:08.021Z,64.34
2022-11-20T11:38:08.056Z,64.21
2022-11-20T11:39:08.004Z,63.97
2022-11-20T11:40:24.715Z,62.40
2022-11-20T11:41:08.004Z,61.51
2022-11-20T11:42:07.957Z,62.70
2022-11-20T11:43:07.960Z,62.18
2022-11-20T11:44:07.986Z,62.18
2022-11-20T11:45:07.944Z,62.15
2022-11-20T11:46:07.919Z,61.04
2022-11-20T11:47:08.228Z,59.64
2022-11-20T11:48:07.924Z,57.03
2022-11-20T11:49:07.926Z,56.36
2022-11-20T11:50:07.943Z,58.05
2022-11-20T11:51:07.877Z,55.59
2022-11-20T11:52:07.865Z,55.54
2022-11-20T11:53:07.867Z,53.97
2022-11-20T11:54:07.847Z,53.85
2022-11-20T11:55:11.625Z,52.70
2022-11-20T11:56:07.872Z,51.98
2022-11-20T11:57:07.839Z,52.00
2022-11-20T11:58:07.819Z,51.37
2022-11-20T11:59:08.097Z,51.04
2022-11-20T12:00:07.797Z,50.42
2022-11-20T12:01:07.774Z,49.73
2022-11-20T12:02:07.850Z,51.44
2022-11-20T12:03:07.769Z,52.92
2022-11-20T12:04:07.736Z,53.20
2022-11-20T12:05:07.732Z,52.56
2022-11-20T12:06:07.720Z,52.67
2022-11-20T12:07:31.159Z,53.75
2022-11-20T12:08:12.360Z,51.42
2022-11-20T12:09:07.693Z,49.89
2022-11-20T12:10:07.690Z,49.27
2022-11-20T12:11:07.940Z,49.60
2022-11-20T12:12:07.685Z,48.52
2022-11-20T12:13:07.659Z,49.90
2022-11-20T12:14:07.717Z,51.53
2022-11-20T12:15:07.650Z,53.10
2022-11-20T12:16:07.610Z,53.10
2022-11-20T12:17:07.643Z,53.00
2022-11-20T12:18:07.907Z,53.05
2022-11-20T12:19:07.595Z,54.49
2022-11-20T12:20:07.593Z,53.30
2022-11-20T12:21:07.579Z,52.04
2022-11-20T12:22:07.546Z,52.73
2022-11-20T12:23:07.622Z,52.99
2022-11-20T12:24:07.564Z,54.69
2022-11-20T12:25:07.865Z,55.74
2022-11-20T12:26:07.562Z,56.67
2022-11-20T12:27:07.517Z,56.67
2022-11-20T12:28:07.498Z,57.09
2022-11-20T12:29:07.507Z,57.88
2022-11-20T12:30:07.478Z,58.99
2022-11-20T12:31:07.453Z,60.13
2022-11-20T12:32:07.764Z,60.13
2022-11-20T12:33:07.438Z,58.30
2022-11-20T12:34:07.471Z,58.04
2022-11-20T12:35:11.423Z,57.16
2022-11-20T12:36:07.403Z,55.69
2022-11-20T12:37:07.389Z,55.00
2022-11-20T12:38:07.414Z,56.93
2022-11-20T12:39:07.657Z,57.57
2022-11-20T12:40:07.383Z,58.74
2022-11-20T12:41:07.351Z,59.77
2022-11-20T12:42:07.330Z,58.87
2022-11-20T12:43:07.321Z,59.36
2022-11-20T12:44:07.358Z,58.74
2022-11-20T12:45:07.345Z,58.64
2022-11-20T12:46:07.562Z,58.84
2022-11-20T12:47:07.295Z,58.94
2022-11-20T12:48:07.325Z,59.18
2022-11-20T12:49:07.264Z,59.49
2022-11-20T12:50:07.368Z,60.37
2022-11-20T12:51:14.956Z,61.61
2022-11-20T12:52:07.225Z,61.82
2022-11-20T12:53:07.618Z,62.77
2022-11-20T12:54:07.196Z,63.40